Time;durP1;ratioP1;P1;durP2;ratioP2;P2;SDS_P1;SDS_P2;PMS_P1;PMS_P2;Temp;Humidity;BMP_temperature;BMP_pressure;BME280_temperature;BME280_humidity;BME280_pressure;Samples;Min_cycle;Max_cycle;Signal;HPM_P1;HPM_P2
2020/12/20 00:00:26;;;;;;;43.88;31.10;;;12.20;99.90;;;;;;5076020;28;20043;-63
2020/12/20 00:02:56;;;;;;;44.90;30.58;;;12.20;99.90;;;;;;5093648;28;20502;-63
2020/12/20 00:05:26;;;;;;;43.53;29.23;;;12.20;99.90;;;;;;5093157;28;20052;-63
2020/12/20 00:07:54;;;;;;;47.05;29.13;;;12.30;99.90;;;;;;5058768;28;20048;-63
2020/12/20 00:10:22;;;;;;;49.30;32.75;;;12.30;99.90;;;;;;5087688;28;20495;-63
2020/12/20 00:12:51;;;;;;;49.05;32.90;;;12.40;99.90;;;;;;5073358;28;20048;-63
2020/12/20 00:15:19;;;;;;;45.38;30.58;;;12.40;99.90;;;;;;5058508;28;20380;-63
2020/12/20 00:17:48;;;;;;;41.80;29.40;;;12.40;99.90;;;;;;5092997;28;20052;-63
2020/12/20 00:20:16;;;;;;;38.75;27.67;;;12.40;99.90;;;;;;5092080;28;20048;-64
2020/12/20 00:22:45;;;;;;;44.15;28.38;;;12.40;99.90;;;;;;5092102;28;20052;-63
2020/12/20 00:25:13;;;;;;;37.60;26.42;;;12.40;99.90;;;;;;5093120;28;20483;-64
2020/12/20 00:27:41;;;;;;;37.40;25.05;;;12.30;99.90;;;;;;5093049;28;20066;-63
2020/12/20 00:30:10;;;;;;;45.83;29.25;;;12.30;99.90;;;;;;5086008;28;20051;-62
2020/12/20 00:32:38;;;;;;;43.55;28.40;;;12.40;99.90;;;;;;5092662;28;20044;-62
2020/12/20 00:35:08;;;;;;;41.30;26.98;;;12.30;99.90;;;;;;5091649;28;20059;-63
2020/12/20 00:37:38;;;;;;;41.05;26.13;;;12.30;99.90;;;;;;5058419;28;20105;-63
2020/12/20 00:40:06;;;;;;;38.45;24.33;;;12.30;99.90;;;;;;5084628;28;20077;-63
2020/12/20 00:42:33;;;;;;;39.30;23.42;;;12.30;99.90;;;;;;5092624;28;20056;-63
2020/12/20 00:45:03;;;;;;;30.73;21.85;;;12.20;99.90;;;;;;5108697;28;20526;-63
2020/12/20 00:47:31;;;;;;;30.17;20.40;;;12.30;99.90;;;;;;5092497;28;20137;-63
2020/12/20 00:49:59;;;;;;;28.90;18.17;;;12.20;99.90;;;;;;5054047;28;20059;-63
2020/12/20 00:52:26;;;;;;;25.33;16.27;;;12.30;99.90;;;;;;5080029;28;20503;-62
2020/12/20 00:54:58;;;;;;;25.23;15.98;;;12.30;99.90;;;;;;5075604;28;20053;-63
2020/12/20 00:57:26;;;;;;;24.90;17.13;;;12.30;99.90;;;;;;5076236;28;20048;-63
2020/12/20 00:59:54;;;;;;;24.23;15.32;;;12.30;99.90;;;;;;5075904;28;20553;-64
2020/12/20 01:02:22;;;;;;;26.38;18.10;;;12.30;99.90;;;;;;5076580;28;20154;-62
2020/12/20 01:04:50;;;;;;;24.40;17.73;;;12.20;99.90;;;;;;5074898;28;20133;-62
2020/12/20 01:07:20;;;;;;;27.02;18.35;;;12.20;99.90;;;;;;5076135;28;20052;-62
2020/12/20 01:09:55;;;;;;;25.08;17.05;;;12.30;99.90;;;;;;5074837;28;20131;-63
2020/12/20 01:12:26;;;;;;;26.95;17.90;;;12.20;99.90;;;;;;5091547;28;20063;-62
2020/12/20 01:15:20;;;;;;;29.45;18.65;;;12.20;99.90;;;;;;5069182;28;20063;-63
2020/12/20 01:17:52;;;;;;;27.83;17.30;;;12.10;99.90;;;;;;5074474;28;20060;-63
2020/12/20 01:20:21;;;;;;;26.63;17.27;;;12.10;99.90;;;;;;5075227;28;20044;-62
2020/12/20 01:22:49;;;;;;;27.30;17.50;;;12.10;99.90;;;;;;5086107;28;20090;-62
2020/12/20 01:25:18;;;;;;;25.13;16.55;;;12.10;99.90;;;;;;5073459;28;20072;-63
2020/12/20 01:27:55;;;;;;;25.13;17.63;;;12.10;99.90;;;;;;5091623;28;20051;-63
2020/12/20 01:30:31;;;;;;;25.20;15.98;;;12.10;99.90;;;;;;5067056;28;20050;-63
2020/12/20 01:33:03;;;;;;;21.83;14.90;;;12.10;99.90;;;;;;5057470;28;20063;-63
2020/12/20 01:35:36;;;;;;;23.77;16.70;;;12.10;99.90;;;;;;5067203;28;20049;-63
2020/12/20 01:38:04;;;;;;;26.10;17.42;;;12.10;99.90;;;;;;5057567;28;20143;-64
2020/12/20 01:40:32;;;;;;;27.63;16.80;;;12.10;99.90;;;;;;5072366;28;20044;-63
2020/12/20 01:43:00;;;;;;;26.73;16.63;;;12.10;99.90;;;;;;5076532;28;20503;-64
2020/12/20 01:45:32;;;;;;;24.33;16.38;;;12.00;99.90;;;;;;5066381;28;20040;-63
2020/12/20 01:47:59;;;;;;;23.92;15.82;;;12.00;99.90;;;;;;5075038;28;20041;-63
2020/12/20 01:50:29;;;;;;;22.10;15.35;;;12.00;99.90;;;;;;5067637;28;20082;-64
2020/12/20 01:52:58;;;;;;;24.60;15.95;;;12.00;99.90;;;;;;5041155;28;20050;-63
2020/12/20 01:55:31;;;;;;;22.83;15.98;;;12.00;99.90;;;;;;5056880;28;20135;-63
2020/12/20 01:58:03;;;;;;;21.98;14.60;;;12.00;99.90;;;;;;5073817;28;20048;-64
2020/12/20 02:00:52;;;;;;;30.20;17.52;;;12.00;99.90;;;;;;5052529;28;20067;-63
2020/12/20 02:03:38;;;;;;;26.42;17.85;;;12.00;99.90;;;;;;5067340;28;20582;-63
2020/12/20 02:06:14;;;;;;;27.27;17.35;;;12.00;99.90;;;;;;5056931;28;20055;-64
2020/12/20 02:08:47;;;;;;;33.47;17.92;;;12.00;99.90;;;;;;5051259;28;20131;-62
2020/12/20 02:11:16;;;;;;;27.15;16.42;;;12.00;99.90;;;;;;5057278;28;20106;-63
2020/12/20 02:13:50;;;;;;;22.95;14.65;;;12.10;99.90;;;;;;5073195;28;20049;-63
2020/12/20 02:16:23;;;;;;;22.73;15.45;;;12.00;99.90;;;;;;5071511;28;20044;-63
2020/12/20 02:18:51;;;;;;;23.30;14.68;;;12.00;99.90;;;;;;5073672;28;20049;-64
2020/12/20 02:21:21;;;;;;;21.17;14.20;;;12.10;99.90;;;;;;5073599;28;20051;-63
2020/12/20 02:23:56;;;;;;;24.05;14.32;;;12.10;99.90;;;;;;5057445;28;20037;-63
2020/12/20 02:26:31;;;;;;;24.50;14.88;;;12.10;99.90;;;;;;5041488;28;20047;-63
2020/12/20 02:28:59;;;;;;;21.45;14.18;;;12.10;99.90;;;;;;5056285;28;20503;-63
2020/12/20 02:31:29;;;;;;;20.20;14.32;;;12.10;99.90;;;;;;5075104;28;20045;-63
2020/12/20 02:34:01;;;;;;;23.73;14.85;;;12.10;99.90;;;;;;5073910;28;20474;-62
2020/12/20 02:36:30;;;;;;;21.42;14.75;;;12.10;99.90;;;;;;5057101;28;20072;-63
2020/12/20 02:39:07;;;;;;;21.55;15.23;;;12.10;99.90;;;;;;5073350;28;20044;-63
2020/12/20 02:41:48;;;;;;;24.00;15.63;;;12.10;99.90;;;;;;5073347;28;20047;-63
2020/12/20 02:44:16;;;;;;;21.73;15.40;;;12.10;99.90;;;;;;5073669;28;20041;-63
2020/12/20 02:46:46;;;;;;;22.27;15.30;;;12.10;99.90;;;;;;5057027;28;20079;-63
2020/12/20 02:49:22;;;;;;;22.20;15.48;;;12.10;99.90;;;;;;5056538;28;20101;-63
2020/12/20 02:51:52;;;;;;;25.50;14.57;;;12.10;99.90;;;;;;5078476;28;20131;-63
2020/12/20 02:54:20;;;;;;;21.35;13.13;;;12.20;99.90;;;;;;5083674;28;20055;-61
2020/12/20 02:56:50;;;;;;;27.23;14.55;;;12.20;99.90;;;;;;5081474;28;20059;-62
2020/12/20 02:59:36;;;;;;;23.95;14.65;;;12.20;99.90;;;;;;5072613;28;20052;-63
2020/12/20 03:02:04;;;;;;;24.02;14.82;;;12.20;99.90;;;;;;5077283;28;20500;-63
2020/12/20 03:04:35;;;;;;;28.38;15.75;;;12.20;99.90;;;;;;5069569;28;20522;-62
2020/12/20 03:07:04;;;;;;;29.23;15.50;;;12.30;99.90;;;;;;5074362;28;20055;-62
2020/12/20 03:09:32;;;;;;;23.77;15.65;;;12.30;99.90;;;;;;5088953;28;20048;-63
2020/12/20 03:12:00;;;;;;;26.33;15.70;;;12.30;99.90;;;;;;5072084;28;20064;-63
2020/12/20 03:14:28;;;;;;;24.38;14.45;;;12.30;99.90;;;;;;5070352;28;20044;-64
2020/12/20 03:17:00;;;;;;;22.50;14.93;;;12.30;99.90;;;;;;5072065;28;20052;-62
2020/12/20 03:19:28;;;;;;;23.33;15.13;;;12.40;99.90;;;;;;5057452;28;20044;-62
2020/12/20 03:21:59;;;;;;;21.85;15.65;;;12.40;99.90;;;;;;5072386;28;20062;-63
2020/12/20 03:24:47;;;;;;;22.88;15.23;;;12.40;99.90;;;;;;5066781;28;20040;-63
2020/12/20 03:27:17;;;;;;;23.25;14.65;;;12.40;99.90;;;;;;5075397;28;20048;-62
2020/12/20 03:30:01;;;;;;;23.08;13.88;;;12.40;99.90;;;;;;5088179;28;20064;-63
2020/12/20 03:32:43;;;;;;;22.45;14.27;;;12.40;99.90;;;;;;5072375;28;20048;-61
2020/12/20 03:35:31;;;;;;;27.73;16.65;;;12.50;99.90;;;;;;5066532;28;20131;-64
2020/12/20 03:38:08;;;;;;;23.27;13.90;;;12.50;99.90;;;;;;5080794;28;20514;-64
2020/12/20 03:40:39;;;;;;;23.67;14.13;;;12.50;99.90;;;;;;5088210;28;20044;-64
2020/12/20 03:43:08;;;;;;;21.85;14.00;;;12.50;99.90;;;;;;5057424;28;20372;-64
2020/12/20 03:45:44;;;;;;;20.30;13.90;;;12.50;99.90;;;;;;5081291;28;20056;-65
2020/12/20 03:48:14;;;;;;;19.90;15.07;;;12.60;99.90;;;;;;5081104;28;20135;-64
2020/12/20 03:50:42;;;;;;;21.85;15.13;;;12.60;99.90;;;;;;5071637;28;20503;-64
2020/12/20 03:53:10;;;;;;;26.60;16.67;;;12.50;99.90;;;;;;5055265;28;20098;-63
2020/12/20 03:56:01;;;;;;;24.20;16.33;;;12.50;99.90;;;;;;5050079;28;20053;-62
2020/12/20 03:58:33;;;;;;;23.10;15.98;;;12.40;99.90;;;;;;5055140;28;20064;-62
2020/12/20 04:01:04;;;;;;;24.40;15.80;;;12.40;99.90;;;;;;5055329;28;20106;-64
2020/12/20 04:03:34;;;;;;;28.15;17.95;;;12.40;99.90;;;;;;5055661;28;20049;-64
2020/12/20 04:06:03;;;;;;;27.20;17.02;;;12.40;99.90;;;;;;5055110;28;20573;-64
2020/12/20 04:08:31;;;;;;;29.48;18.25;;;12.40;99.90;;;;;;5071795;28;20492;-65
2020/12/20 04:11:27;;;;;;;28.48;17.70;;;12.40;99.90;;;;;;5051749;28;20059;-64
2020/12/20 04:13:55;;;;;;;33.08;19.33;;;12.30;99.90;;;;;;5071659;28;20122;-64
2020/12/20 04:16:23;;;;;;;26.92;17.75;;;12.40;99.90;;;;;;5070687;28;20048;-64
2020/12/20 04:18:51;;;;;;;26.58;18.23;;;12.40;99.90;;;;;;5054404;28;20420;-64
2020/12/20 04:21:30;;;;;;;25.13;16.80;;;12.40;99.90;;;;;;5057647;28;20557;-64
2020/12/20 04:23:59;;;;;;;34.45;17.38;;;12.40;99.90;;;;;;5054875;28;20062;-64
2020/12/20 04:26:28;;;;;;;30.98;17.60;;;12.50;99.90;;;;;;5054769;28;20557;-64
2020/12/20 04:29:19;;;;;;;29.58;17.77;;;12.50;99.90;;;;;;5043692;28;20133;-64
2020/12/20 04:31:52;;;;;;;29.77;17.08;;;12.50;99.90;;;;;;5055058;28;20384;-64
2020/12/20 04:34:22;;;;;;;32.22;18.35;;;12.50;99.90;;;;;;5071311;28;20503;-64
2020/12/20 04:36:50;;;;;;;24.85;17.13;;;12.50;99.90;;;;;;5088071;28;20109;-65
2020/12/20 04:39:39;;;;;;;28.95;18.67;;;12.50;99.90;;;;;;5061212;28;20044;-64
2020/12/20 04:42:09;;;;;;;28.63;17.90;;;12.40;99.90;;;;;;5087598;28;20107;-64
2020/12/20 04:44:36;;;;;;;26.08;17.63;;;12.50;99.90;;;;;;5054058;28;20046;-65
2020/12/20 04:47:06;;;;;;;27.17;16.45;;;12.50;99.90;;;;;;5054051;28;20045;-64
2020/12/20 04:49:46;;;;;;;25.65;14.73;;;12.60;99.90;;;;;;5072022;28;20055;-64
2020/12/20 04:52:22;;;;;;;25.80;16.95;;;12.60;99.90;;;;;;5068919;28;20411;-64
2020/12/20 04:54:54;;;;;;;26.33;16.15;;;12.60;99.90;;;;;;5066643;28;20044;-64
2020/12/20 04:57:57;;;;;;;25.27;16.70;;;12.60;99.90;;;;;;5009826;28;20052;-64
2020/12/20 05:00:28;;;;;;;22.02;15.40;;;12.70;99.90;;;;;;5042137;28;20044;-64
2020/12/20 05:02:56;;;;;;;25.30;14.88;;;12.60;99.90;;;;;;5067751;28;20068;-64
2020/12/20 05:05:25;;;;;;;25.63;13.95;;;12.60;99.90;;;;;;5062725;28;20074;-63
2020/12/20 05:07:54;;;;;;;26.38;16.58;;;12.60;99.90;;;;;;5062916;28;20041;-65
2020/12/20 05:10:38;;;;;;;26.85;15.98;;;12.60;99.90;;;;;;5061760;28;20049;-64
2020/12/20 05:13:07;;;;;;;33.00;16.55;;;12.60;99.90;;;;;;5069877;28;20380;-64
2020/12/20 05:15:35;;;;;;;29.90;16.20;;;12.50;99.90;;;;;;5060499;28;20072;-64
2020/12/20 05:18:18;;;;;;;29.52;18.30;;;12.50;99.90;;;;;;5059182;28;20044;-63
2020/12/20 05:20:56;;;;;;;33.85;16.23;;;12.50;99.90;;;;;;5061493;28;20032;-64
2020/12/20 05:23:30;;;;;;;23.23;15.43;;;12.50;99.90;;;;;;5075382;28;20399;-64
2020/12/20 05:26:28;;;;;;;27.63;16.83;;;12.50;99.90;;;;;;5054638;28;20099;-65
2020/12/20 05:29:10;;;;;;;23.67;16.52;;;12.60;99.90;;;;;;5068216;28;20048;-64
2020/12/20 05:31:41;;;;;;;24.45;16.77;;;12.50;99.90;;;;;;5058443;28;20126;-64
2020/12/20 05:34:31;;;;;;;25.08;16.73;;;12.50;99.90;;;;;;5068891;28;20045;-64
2020/12/20 05:37:11;;;;;;;22.40;15.35;;;12.50;99.90;;;;;;5065369;28;20041;-65
2020/12/20 05:39:44;;;;;;;31.88;17.35;;;12.50;99.90;;;;;;5060266;28;20044;-64
2020/12/20 05:42:33;;;;;;;33.03;18.60;;;12.50;99.90;;;;;;5074968;28;20044;-65
2020/12/20 05:45:11;;;;;;;38.72;18.02;;;12.50;99.90;;;;;;5055243;28;20132;-65
2020/12/20 05:47:51;;;;;;;24.35;15.93;;;12.50;99.90;;;;;;5055620;28;20488;-63
2020/12/20 05:50:19;;;;;;;30.45;18.10;;;12.50;99.90;;;;;;5070218;28;20064;-64
2020/12/20 05:53:01;;;;;;;28.02;18.77;;;12.50;99.90;;;;;;5068547;28;20191;-64
2020/12/20 05:55:37;;;;;;;28.63;17.88;;;12.40;99.90;;;;;;5065975;28;20048;-63
2020/12/20 05:58:25;;;;;;;34.45;18.15;;;12.50;99.90;;;;;;5068628;28;20056;-64
2020/12/20 06:00:54;;;;;;;31.63;19.42;;;12.50;99.90;;;;;;5097666;28;20044;-64
2020/12/20 06:03:22;;;;;;;26.83;18.92;;;12.50;99.90;;;;;;5072031;28;20052;-65
2020/12/20 06:05:50;;;;;;;25.92;15.75;;;12.50;99.90;;;;;;5085954;28;20056;-63
2020/12/20 06:08:20;;;;;;;25.38;16.80;;;12.50;99.90;;;;;;5069744;28;20153;-63
2020/12/20 06:10:53;;;;;;;26.50;16.55;;;12.40;99.90;;;;;;5071080;28;20147;-64
2020/12/20 06:13:25;;;;;;;26.25;16.23;;;12.40;99.90;;;;;;5087867;28;20063;-64
2020/12/20 06:15:57;;;;;;;30.63;17.90;;;12.40;99.90;;;;;;5089600;28;20049;-64
2020/12/20 06:18:28;;;;;;;40.42;19.05;;;12.30;99.90;;;;;;5083357;28;20049;-64
2020/12/20 06:21:03;;;;;;;33.83;20.05;;;12.30;99.90;;;;;;5071260;28;20131;-64
2020/12/20 06:23:34;;;;;;;38.53;19.42;;;12.20;99.90;;;;;;5072005;28;20048;-64
2020/12/20 06:26:03;;;;;;;31.95;20.85;;;12.20;99.90;;;;;;5071782;28;20045;-64
2020/12/20 06:28:33;;;;;;;37.15;22.95;;;12.20;99.90;;;;;;5072109;28;20495;-64
2020/12/20 06:31:03;;;;;;;33.22;19.63;;;12.20;99.90;;;;;;5069996;28;20070;-65
2020/12/20 06:33:30;;;;;;;38.13;20.20;;;12.10;99.90;;;;;;5070920;28;20063;-64
2020/12/20 06:36:00;;;;;;;34.58;19.73;;;12.20;99.90;;;;;;5069831;28;20052;-63
2020/12/20 06:38:32;;;;;;;31.80;20.42;;;12.20;99.90;;;;;;5082393;28;20045;-64
2020/12/20 06:41:00;;;;;;;29.55;19.83;;;12.20;99.90;;;;;;5068548;28;20056;-64
2020/12/20 06:43:30;;;;;;;37.28;22.63;;;12.20;99.90;;;;;;5073534;28;20557;-64
2020/12/20 06:45:58;;;;;;;30.35;20.33;;;12.20;99.90;;;;;;5074455;28;20074;-63
2020/12/20 06:48:37;;;;;;;31.08;21.20;;;12.30;99.90;;;;;;5107332;28;20072;-64
2020/12/20 06:51:27;;;;;;;34.75;20.67;;;12.30;99.90;;;;;;5089866;28;20127;-64
2020/12/20 06:53:56;;;;;;;32.30;21.23;;;12.50;99.90;;;;;;5073222;28;20110;-64
2020/12/20 06:56:25;;;;;;;33.85;23.02;;;12.60;99.90;;;;;;5090188;28;20076;-64
2020/12/20 06:58:53;;;;;;;35.10;21.02;;;12.70;99.90;;;;;;5074018;28;20048;-63
2020/12/20 07:01:38;;;;;;;36.35;23.77;;;12.80;99.90;;;;;;5073309;28;20109;-64
2020/12/20 07:04:13;;;;;;;42.42;23.15;;;12.90;99.90;;;;;;5089980;28;20061;-64
2020/12/20 07:07:05;;;;;;;50.63;28.33;;;13.00;99.90;;;;;;5074531;28;20056;-64
2020/12/20 07:09:33;;;;;;;40.13;22.98;;;13.10;99.90;;;;;;5056144;28;20049;-64
2020/12/20 07:12:00;;;;;;;38.97;21.90;;;13.20;99.90;;;;;;5065044;28;20080;-64
2020/12/20 07:14:35;;;;;;;36.28;22.33;;;13.30;99.90;;;;;;5074134;28;20529;-64
2020/12/20 07:17:22;;;;;;;83.20;44.88;;;13.40;99.90;;;;;;5072895;28;20527;-65
2020/12/20 07:20:12;;;;;;;47.17;27.60;;;13.40;99.90;;;;;;5073616;28;20048;-65
2020/12/20 07:22:42;;;;;;;46.10;23.95;;;13.50;99.90;;;;;;5084188;28;20052;-64
2020/12/20 07:25:10;;;;;;;32.10;21.30;;;13.60;99.90;;;;;;5073909;28;20127;-64
2020/12/20 07:27:37;;;;;;;34.53;19.42;;;13.60;99.90;;;;;;5089195;28;20048;-65
2020/12/20 07:30:05;;;;;;;28.70;17.92;;;13.70;99.90;;;;;;5073263;28;20056;-64
2020/12/20 07:32:33;;;;;;;25.83;17.42;;;13.70;99.90;;;;;;5073798;28;20048;-64
2020/12/20 07:35:00;;;;;;;27.00;17.08;;;13.70;99.90;;;;;;5072652;28;20496;-64
2020/12/20 07:37:28;;;;;;;29.42;17.48;;;13.70;99.90;;;;;;5073767;28;20059;-65
2020/12/20 07:40:04;;;;;;;27.15;16.63;;;13.70;99.90;;;;;;5073105;28;20056;-65
2020/12/20 07:42:31;;;;;;;36.80;17.70;;;13.40;99.90;;;;;;5066552;28;20185;-65
2020/12/20 07:45:00;;;;;;;40.03;19.00;;;13.30;99.90;;;;;;5073619;28;20044;-65
2020/12/20 07:47:28;;;;;;;27.80;19.02;;;13.40;99.90;;;;;;5081194;28;20045;-64
2020/12/20 07:49:56;;;;;;;41.00;24.90;;;13.50;99.90;;;;;;5075912;28;20055;-65
2020/12/20 07:52:27;;;;;;;32.03;17.95;;;13.60;99.90;;;;;;5092401;28;20117;-64
2020/12/20 07:54:58;;;;;;;28.85;18.13;;;13.80;99.90;;;;;;5075845;28;20515;-64
2020/12/20 07:57:27;;;;;;;30.48;18.88;;;14.00;99.90;;;;;;5075598;28;20514;-64
2020/12/20 08:00:05;;;;;;;59.53;32.20;;;14.00;99.90;;;;;;5091695;28;20150;-64
2020/12/20 08:02:39;;;;;;;33.38;19.80;;;14.10;99.90;;;;;;5086121;28;20044;-64
2020/12/20 08:05:11;;;;;;;47.47;29.00;;;14.20;99.90;;;;;;5093075;28;20106;-64
2020/12/20 08:07:38;;;;;;;26.40;17.45;;;14.40;99.90;;;;;;5091570;28;20482;-64
2020/12/20 08:10:07;;;;;;;23.30;15.60;;;14.60;99.90;;;;;;5091080;28;20506;-64
2020/12/20 08:12:37;;;;;;;25.33;16.08;;;14.60;99.90;;;;;;5075415;28;20495;-64
2020/12/20 08:15:08;;;;;;;24.30;15.95;;;14.70;99.90;;;;;;5092264;28;20044;-64
2020/12/20 08:17:36;;;;;;;27.30;16.42;;;14.70;99.90;;;;;;5093296;28;20048;-64
2020/12/20 08:20:06;;;;;;;28.58;18.40;;;14.80;99.90;;;;;;5092572;28;20044;-64
2020/12/20 08:22:34;;;;;;;26.05;18.52;;;14.80;99.90;;;;;;5075184;28;20044;-64
2020/12/20 08:25:09;;;;;;;37.25;18.98;;;14.80;99.90;;;;;;5092078;28;20040;-63
2020/12/20 08:27:40;;;;;;;22.40;14.50;;;14.90;99.90;;;;;;5074886;28;20052;-63
2020/12/20 08:30:11;;;;;;;22.50;14.90;;;14.90;99.90;;;;;;5042277;28;20046;-63
2020/12/20 08:32:47;;;;;;;24.20;14.95;;;15.00;99.90;;;;;;5093139;28;20062;-63
2020/12/20 08:35:22;;;;;;;26.63;17.08;;;15.00;99.90;;;;;;5069940;28;20123;-64
2020/12/20 08:37:58;;;;;;;23.45;15.95;;;15.10;99.90;;;;;;5071280;28;20562;-64
2020/12/20 08:40:31;;;;;;;24.85;15.60;;;15.30;99.90;;;;;;5084500;28;20059;-64
2020/12/20 08:43:01;;;;;;;27.92;18.35;;;15.50;99.90;;;;;;5071189;28;20040;-65
2020/12/20 08:45:31;;;;;;;27.65;18.92;;;15.70;99.90;;;;;;5087507;28;20514;-65
2020/12/20 08:48:04;;;;;;;23.58;16.52;;;15.90;99.90;;;;;;5086072;28;20036;-64
2020/12/20 08:50:34;;;;;;;23.80;14.30;;;16.10;99.90;;;;;;5089795;28;20132;-64
2020/12/20 08:53:07;;;;;;;18.92;12.18;;;16.20;99.90;;;;;;5086502;28;20054;-64
2020/12/20 08:55:34;;;;;;;47.08;13.15;;;16.20;99.90;;;;;;5088809;28;20142;-65
2020/12/20 08:58:07;;;;;;;19.40;12.80;;;16.20;99.90;;;;;;5090321;28;20036;-65
2020/12/20 09:00:36;;;;;;;21.58;10.75;;;16.10;99.90;;;;;;5083095;28;20135;-65
2020/12/20 09:03:07;;;;;;;18.77;12.18;;;15.90;99.90;;;;;;5071605;28;20048;-64
2020/12/20 09:05:35;;;;;;;16.17;11.00;;;15.80;99.90;;;;;;5071619;28;20044;-64
2020/12/20 09:08:05;;;;;;;20.85;13.10;;;15.60;99.90;;;;;;5086724;28;20063;-64
2020/12/20 09:10:34;;;;;;;21.05;14.00;;;15.60;99.90;;;;;;5086967;28;20056;-65
2020/12/20 09:13:06;;;;;;;25.15;13.55;;;15.60;99.90;;;;;;5086422;28;20476;-65
2020/12/20 09:15:42;;;;;;;19.42;13.55;;;15.60;99.90;;;;;;5091968;28;20109;-64
2020/12/20 09:18:16;;;;;;;24.10;13.57;;;15.70;99.90;;;;;;5066697;28;20078;-65
2020/12/20 09:20:45;;;;;;;22.35;13.23;;;15.70;99.90;;;;;;5092259;28;20048;-64
2020/12/20 09:23:20;;;;;;;25.38;14.93;;;15.90;99.90;;;;;;5085938;28;20048;-64
2020/12/20 09:25:48;;;;;;;23.23;14.10;;;16.20;99.90;;;;;;5091288;28;20104;-64
2020/12/20 09:28:21;;;;;;;18.77;12.93;;;16.30;99.90;;;;;;5077459;28;20055;-64
2020/12/20 09:30:50;;;;;;;23.20;13.73;;;16.40;99.90;;;;;;5089646;28;20044;-64
2020/12/20 09:33:28;;;;;;;30.45;13.02;;;16.50;99.90;;;;;;5090745;28;20057;-63
2020/12/20 09:36:05;;;;;;;21.48;13.57;;;16.40;99.90;;;;;;5090296;28;20135;-65
2020/12/20 09:38:45;;;;;;;18.90;12.30;;;16.50;99.90;;;;;;5088914;28;20986;-64
2020/12/20 09:41:15;;;;;;;19.75;11.65;;;16.60;99.90;;;;;;5090274;28;20102;-64
2020/12/20 09:43:45;;;;;;;20.90;10.10;;;16.80;99.90;;;;;;5089096;28;20040;-64
2020/12/20 09:46:22;;;;;;;19.17;10.60;;;16.90;99.90;;;;;;5089034;28;20040;-64
2020/12/20 09:48:50;;;;;;;16.90;10.30;;;16.90;99.90;;;;;;5101710;28;20082;-64
2020/12/20 09:51:18;;;;;;;17.27;11.02;;;17.00;99.90;;;;;;5069535;28;20507;-64
2020/12/20 09:53:49;;;;;;;19.23;11.13;;;16.90;99.90;;;;;;5069365;28;20052;-64
2020/12/20 09:56:18;;;;;;;17.48;10.05;;;16.80;99.90;;;;;;5068197;28;20052;-64
2020/12/20 09:58:46;;;;;;;17.33;8.50;;;16.80;99.90;;;;;;5053110;28;20051;-63
2020/12/20 10:01:17;;;;;;;10.48;6.20;;;16.70;99.90;;;;;;5040454;28;20036;-64
2020/12/20 10:03:45;;;;;;;9.23;5.05;;;16.50;99.90;;;;;;5048616;28;20207;-64
2020/12/20 10:06:16;;;;;;;10.73;5.70;;;16.60;99.90;;;;;;5072361;28;20040;-64
2020/12/20 10:08:44;;;;;;;10.70;6.47;;;16.50;99.90;;;;;;5053668;28;20044;-63
2020/12/20 10:11:17;;;;;;;10.82;5.93;;;16.60;99.90;;;;;;5056614;28;20048;-64
2020/12/20 10:13:46;;;;;;;12.40;6.50;;;16.50;99.90;;;;;;5054289;28;20055;-64
2020/12/20 10:16:23;;;;;;;9.95;4.82;;;16.70;99.90;;;;;;5071016;28;20044;-64
2020/12/20 10:18:53;;;;;;;8.45;4.47;;;16.80;99.90;;;;;;5068362;28;20162;-63
2020/12/20 10:21:21;;;;;;;8.70;4.35;;;16.80;99.90;;;;;;5044965;28;20099;-64
2020/12/20 10:23:49;;;;;;;8.00;2.78;;;16.70;99.90;;;;;;5068870;28;20051;-63
2020/12/20 10:26:17;;;;;;;10.93;2.92;;;16.70;99.90;;;;;;5067360;28;20048;-65
2020/12/20 10:28:44;;;;;;;5.85;3.00;;;16.70;99.90;;;;;;5059524;28;20056;-63
2020/12/20 10:31:20;;;;;;;10.45;5.03;;;16.80;99.90;;;;;;5057457;28;20055;-63
2020/12/20 10:33:47;;;;;;;6.95;3.72;;;16.60;99.90;;;;;;5054462;28;20075;-64
2020/12/20 10:36:15;;;;;;;9.38;4.47;;;16.60;99.90;;;;;;5073627;28;20048;-64
2020/12/20 10:38:42;;;;;;;7.88;4.47;;;16.60;99.90;;;;;;5056361;28;20515;-63
2020/12/20 10:41:10;;;;;;;19.90;10.35;;;16.80;99.90;;;;;;5057640;28;20049;-64
2020/12/20 10:43:37;;;;;;;28.13;13.57;;;16.90;99.90;;;;;;5068570;28;20049;-63
2020/12/20 10:46:04;;;;;;;21.77;12.43;;;17.00;99.90;;;;;;5053939;28;20045;-64
2020/12/20 10:48:32;;;;;;;12.57;7.47;;;17.00;99.90;;;;;;5073386;28;20121;-64
2020/12/20 10:50:59;;;;;;;14.75;4.80;;;17.00;99.90;;;;;;5079984;28;20140;-63
2020/12/20 10:53:27;;;;;;;6.75;4.18;;;17.10;99.90;;;;;;5080318;28;20551;-64
2020/12/20 10:55:55;;;;;;;7.85;3.65;;;17.10;99.90;;;;;;5073051;28;20044;-64
2020/12/20 10:58:23;;;;;;;6.20;3.85;;;17.10;99.90;;;;;;5073985;28;20054;-64
2020/12/20 11:00:50;;;;;;;8.77;3.00;;;17.10;99.90;;;;;;5060292;28;20040;-63
2020/12/20 11:03:18;;;;;;;6.45;4.40;;;17.20;99.90;;;;;;5074046;28;20048;-64
2020/12/20 11:05:46;;;;;;;7.05;3.25;;;17.10;99.90;;;;;;5058709;28;20071;-64
2020/12/20 11:08:14;;;;;;;8.98;3.67;;;17.30;99.90;;;;;;5074150;28;20440;-64
2020/12/20 11:10:41;;;;;;;6.07;3.53;;;17.40;99.90;;;;;;5073342;28;20503;-64
2020/12/20 11:13:09;;;;;;;7.03;3.10;;;17.40;99.90;;;;;;5074167;28;20052;-64
2020/12/20 11:15:36;;;;;;;8.50;3.40;;;17.40;99.90;;;;;;5073727;28;20537;-64
2020/12/20 11:18:04;;;;;;;6.15;3.53;;;17.40;99.90;;;;;;5081050;28;20045;-63
2020/12/20 11:20:31;;;;;;;6.70;3.65;;;17.60;99.90;;;;;;5073247;28;20041;-64
2020/12/20 11:23:04;;;;;;;7.07;3.80;;;17.50;99.90;;;;;;5066067;28;20040;-64
2020/12/20 11:25:33;;;;;;;7.25;3.88;;;17.70;99.90;;;;;;5061292;28;20052;-64
2020/12/20 11:28:01;;;;;;;5.80;3.13;;;17.90;99.90;;;;;;5073841;28;20115;-64
2020/12/20 11:30:28;;;;;;;5.28;3.58;;;18.00;99.90;;;;;;5073191;28;20052;-65
2020/12/20 11:32:56;;;;;;;6.75;3.53;;;18.00;99.90;;;;;;5080969;28;20044;-64
2020/12/20 11:35:23;;;;;;;8.30;3.72;;;17.90;99.90;;;;;;5043279;28;20072;-64
2020/12/20 11:37:51;;;;;;;7.95;3.85;;;17.60;99.90;;;;;;5071614;28;20407;-64
2020/12/20 11:40:21;;;;;;;10.40;4.50;;;17.60;99.90;;;;;;5073159;28;20044;-64
2020/12/20 11:42:49;;;;;;;16.10;4.35;;;17.60;99.90;;;;;;5073316;28;20097;-64
2020/12/20 11:45:16;;;;;;;8.93;3.67;;;17.60;99.90;;;;;;5073728;28;20066;-64
2020/12/20 11:47:44;;;;;;;5.80;2.63;;;17.50;99.90;;;;;;5072919;28;20056;-64
2020/12/20 11:50:13;;;;;;;7.18;3.10;;;17.60;99.90;;;;;;5072972;28;20137;-64
2020/12/20 11:52:42;;;;;;;12.00;3.97;;;17.70;99.90;;;;;;5072431;28;20417;-64
2020/12/20 11:55:10;;;;;;;8.15;3.78;;;17.60;99.90;;;;;;5073014;28;20045;-64
2020/12/20 11:57:37;;;;;;;11.93;4.03;;;17.50;99.90;;;;;;5073056;28;20056;-64
2020/12/20 12:00:05;;;;;;;8.63;3.83;;;17.60;99.90;;;;;;5072526;28;20056;-65
2020/12/20 12:02:39;;;;;;;7.35;3.75;;;17.70;99.90;;;;;;5054435;28;20502;-62
2020/12/20 12:05:08;;;;;;;5.65;3.70;;;17.70;99.90;;;;;;5071531;28;20044;-64
2020/12/20 12:07:36;;;;;;;8.00;4.05;;;17.70;99.90;;;;;;5072560;28;20056;-64
2020/12/20 12:10:03;;;;;;;8.60;3.20;;;17.80;99.90;;;;;;5071638;28;20495;-64
2020/12/20 12:12:31;;;;;;;8.85;4.40;;;17.70;99.90;;;;;;5053434;28;20040;-63
2020/12/20 12:14:58;;;;;;;6.38;3.33;;;17.50;99.90;;;;;;5054525;28;20067;-63
2020/12/20 12:17:34;;;;;;;6.43;3.47;;;17.20;99.90;;;;;;5063339;28;20055;-64
2020/12/20 12:20:03;;;;;;;9.48;4.10;;;17.10;99.90;;;;;;5054322;28;20396;-64
2020/12/20 12:22:33;;;;;;;7.50;3.30;;;16.90;99.90;;;;;;5054764;28;20045;-62
2020/12/20 12:25:01;;;;;;;5.43;2.70;;;16.80;99.90;;;;;;5038523;28;20051;-63
2020/12/20 12:27:28;;;;;;;7.88;2.60;;;16.70;99.90;;;;;;5054561;28;20036;-64
2020/12/20 12:29:56;;;;;;;8.95;3.95;;;16.60;99.90;;;;;;5054253;28;20044;-64
2020/12/20 12:32:23;;;;;;;5.97;2.40;;;16.60;99.90;;;;;;5072367;28;20044;-64
2020/12/20 12:34:51;;;;;;;4.05;1.95;;;16.60;99.90;;;;;;5038713;28;20045;-64
2020/12/20 12:37:19;;;;;;;6.25;2.45;;;16.40;99.90;;;;;;5072618;28;20496;-64
2020/12/20 12:39:46;;;;;;;4.32;2.33;;;16.20;99.90;;;;;;5046488;28;20071;-63
2020/12/20 12:42:14;;;;;;;6.68;3.33;;;16.10;99.90;;;;;;5054782;28;20514;-65
2020/12/20 12:44:44;;;;;;;4.28;2.53;;;16.20;99.90;;;;;;5072294;28;20074;-64
2020/12/20 12:47:12;;;;;;;6.95;3.40;;;16.10;99.90;;;;;;5072603;28;20075;-63
2020/12/20 12:49:44;;;;;;;6.70;3.08;;;16.10;99.90;;;;;;5072009;28;20139;-64
2020/12/20 12:52:12;;;;;;;6.60;2.72;;;16.10;99.90;;;;;;5054894;28;20044;-64